KCEF/CEF METAR and TAF weather

Enter ICAO airport designator
Station Type Date Time Source
KCEF METAR 2019/04/18 09:56 UTC NOAA

KCEF 180956Z AUTO 00000KT 10SM -RA FEW041 FEW048 OVC065 06/02 A3022 RMK AO2 RAE05RAB11E24RAB33E50DZB50E55RAB55 SLP240 P0001 T00580017


Station Type Date Time Source
KCEF Decoded METAR 2019/04/18 09:56 UTC NOAA

Chicopee Falls / Westover Air Force Base, MA, United States (KCEF) 42-12N 072-32W 75M
Apr 18, 2019 - 05:56 AM EDT / 2019.04.18 0956 UTC
Wind: Calm:0
Visibility: 10 mile(s):0
Sky conditions: overcast
Weather: light rain
Precipitation last hour: 0.01 inches
Temperature: 42.4 F (5.8 C)
Dew Point: 35.1 F (1.7 C)
Relative Humidity: 74%
Pressure (altimeter): 30.22 in. Hg (1023 hPa)
ob: KCEF 180956Z AUTO 00000KT 10SM -RA FEW041 FEW048 OVC065 06/02 A3022 RMK AO2 RAE05RAB11E24RAB33E50DZB50E55RAB55 SLP240 P0001 T00580017
cycle: 10

Station Type Date Time Source
KCEF TAF 2019/04/18 10:59 UTC NOAA

TAF KCEF 181000Z 1810/1916 VRB06KT 9999 -SHRA OVC065 620659 QNH3016INS
BECMG 1812/1813 16009KT 9999 NSW BKN050 OVC090 QNH3013INS
BECMG 1814/1815 15010G15KT 9999 OVC040 QNH3008INS
TEMPO 1815/1820 16015G25KT 520004
BECMG 1819/1820 15010G15KT 9999 OVC020 QNH2997INS
BECMG 1821/1822 13009KT 3200 -DZ BR OVC010 WS020/15045KT 540203 QNH2986INS
BECMG 1900/1901 VRB06KT 8000 BR OVC007 WS015/20045KT 520203 QNH2985INS
BECMG 1902/1903 VRB06KT 4800 BR OVC005 WS015/21045KT 520203 QNH2980INS
BECMG 1912/1913 VRB06KT 3200 -DZ BR OVC005 WS020/21040KT 520203 QNH2976INS TX11/1818Z TN06/1810Z

Example: see airport list